sensor_id;sensor_type;location;lat;lon;timestamp;P1;durP1;ratioP1;P2;durP2;ratioP2
15748;SDS011;7976;52.526;13.326;2023-04-01T00:01:45;7.18;;;2.50;;
15748;SDS011;7976;52.526;13.326;2023-04-01T00:04:12;7.63;;;2.42;;
15748;SDS011;7976;52.526;13.326;2023-04-01T00:06:38;8.80;;;2.72;;
15748;SDS011;7976;52.526;13.326;2023-04-01T00:09:05;8.52;;;2.33;;
15748;SDS011;7976;52.526;13.326;2023-04-01T00:11:32;9.57;;;2.90;;
15748;SDS011;7976;52.526;13.326;2023-04-01T00:13:59;9.38;;;2.60;;
15748;SDS011;7976;52.526;13.326;2023-04-01T00:16:29;10.57;;;2.65;;
15748;SDS011;7976;52.526;13.326;2023-04-01T00:18:56;8.50;;;2.33;;
15748;SDS011;7976;52.526;13.326;2023-04-01T00:21:23;5.55;;;1.92;;
15748;SDS011;7976;52.526;13.326;2023-04-01T00:23:50;9.25;;;2.35;;
15748;SDS011;7976;52.526;13.326;2023-04-01T00:26:17;7.47;;;2.30;;
15748;SDS011;7976;52.526;13.326;2023-04-01T00:28:46;9.20;;;2.55;;
15748;SDS011;7976;52.526;13.326;2023-04-01T00:31:14;8.77;;;1.85;;
15748;SDS011;7976;52.526;13.326;2023-04-01T00:33:42;6.63;;;2.10;;
15748;SDS011;7976;52.526;13.326;2023-04-01T00:36:10;12.23;;;2.53;;
15748;SDS011;7976;52.526;13.326;2023-04-01T00:38:39;7.75;;;2.25;;
15748;SDS011;7976;52.526;13.326;2023-04-01T00:41:08;7.78;;;2.20;;
15748;SDS011;7976;52.526;13.326;2023-04-01T00:43:39;8.15;;;2.05;;
15748;SDS011;7976;52.526;13.326;2023-04-01T00:46:06;6.90;;;2.28;;
15748;SDS011;7976;52.526;13.326;2023-04-01T00:48:34;7.88;;;2.00;;
15748;SDS011;7976;52.526;13.326;2023-04-01T00:51:07;8.52;;;1.90;;
15748;SDS011;7976;52.526;13.326;2023-04-01T00:53:41;7.90;;;2.10;;
15748;SDS011;7976;52.526;13.326;2023-04-01T00:56:13;7.65;;;2.10;;
15748;SDS011;7976;52.526;13.326;2023-04-01T00:58:46;7.82;;;2.30;;
15748;SDS011;7976;52.526;13.326;2023-04-01T01:01:18;8.00;;;2.20;;
15748;SDS011;7976;52.526;13.326;2023-04-01T01:03:47;8.18;;;2.17;;
15748;SDS011;7976;52.526;13.326;2023-04-01T01:06:19;6.53;;;2.00;;
15748;SDS011;7976;52.526;13.326;2023-04-01T01:09:07;7.05;;;2.13;;
15748;SDS011;7976;52.526;13.326;2023-04-01T01:11:52;7.13;;;2.30;;
15748;SDS011;7976;52.526;13.326;2023-04-01T01:14:34;6.53;;;2.10;;
15748;SDS011;7976;52.526;13.326;2023-04-01T01:17:16;10.15;;;2.47;;
15748;SDS011;7976;52.526;13.326;2023-04-01T01:20:06;5.40;;;1.95;;
15748;SDS011;7976;52.526;13.326;2023-04-01T01:23:11;7.95;;;1.98;;
15748;SDS011;7976;52.526;13.326;2023-04-01T01:26:33;7.60;;;2.13;;
15748;SDS011;7976;52.526;13.326;2023-04-01T01:29:16;6.88;;;2.00;;
15748;SDS011;7976;52.526;13.326;2023-04-01T01:32:10;6.10;;;1.98;;
15748;SDS011;7976;52.526;13.326;2023-04-01T01:34:53;7.00;;;2.08;;
15748;SDS011;7976;52.526;13.326;2023-04-01T01:37:36;7.28;;;2.50;;
15748;SDS011;7976;52.526;13.326;2023-04-01T01:40:07;8.48;;;2.30;;
15748;SDS011;7976;52.526;13.326;2023-04-01T01:42:38;7.40;;;2.55;;
15748;SDS011;7976;52.526;13.326;2023-04-01T01:45:11;11.45;;;2.80;;
15748;SDS011;7976;52.526;13.326;2023-04-01T01:47:44;8.95;;;2.10;;
15748;SDS011;7976;52.526;13.326;2023-04-01T01:50:16;6.15;;;1.98;;
15748;SDS011;7976;52.526;13.326;2023-04-01T01:52:45;7.28;;;1.85;;
15748;SDS011;7976;52.526;13.326;2023-04-01T01:55:24;6.45;;;1.90;;
15748;SDS011;7976;52.526;13.326;2023-04-01T01:57:56;7.70;;;1.75;;
15748;SDS011;7976;52.526;13.326;2023-04-01T02:00:28;5.38;;;1.98;;
15748;SDS011;7976;52.526;13.326;2023-04-01T02:02:58;11.63;;;2.60;;
15748;SDS011;7976;52.526;13.326;2023-04-01T02:05:28;9.20;;;3.28;;
15748;SDS011;7976;52.526;13.326;2023-04-01T02:08:05;8.77;;;2.60;;
15748;SDS011;7976;52.526;13.326;2023-04-01T02:10:39;7.93;;;2.50;;
15748;SDS011;7976;52.526;13.326;2023-04-01T02:13:21;8.35;;;2.17;;
15748;SDS011;7976;52.526;13.326;2023-04-01T02:15:58;6.03;;;2.00;;
15748;SDS011;7976;52.526;13.326;2023-04-01T02:18:33;7.78;;;2.08;;
15748;SDS011;7976;52.526;13.326;2023-04-01T02:21:06;6.43;;;2.10;;
15748;SDS011;7976;52.526;13.326;2023-04-01T02:23:35;5.45;;;1.70;;
15748;SDS011;7976;52.526;13.326;2023-04-01T02:26:04;6.35;;;1.80;;
15748;SDS011;7976;52.526;13.326;2023-04-01T02:28:35;6.65;;;1.73;;
15748;SDS011;7976;52.526;13.326;2023-04-01T02:31:07;8.50;;;1.83;;
15748;SDS011;7976;52.526;13.326;2023-04-01T02:33:36;6.28;;;1.80;;
15748;SDS011;7976;52.526;13.326;2023-04-01T02:36:07;6.70;;;2.03;;
15748;SDS011;7976;52.526;13.326;2023-04-01T02:38:39;8.35;;;2.03;;
15748;SDS011;7976;52.526;13.326;2023-04-01T02:41:08;9.02;;;2.10;;
15748;SDS011;7976;52.526;13.326;2023-04-01T02:43:35;8.70;;;2.53;;
15748;SDS011;7976;52.526;13.326;2023-04-01T02:46:01;9.57;;;3.05;;
15748;SDS011;7976;52.526;13.326;2023-04-01T02:48:29;6.45;;;1.90;;
15748;SDS011;7976;52.526;13.326;2023-04-01T02:50:56;6.60;;;1.80;;
15748;SDS011;7976;52.526;13.326;2023-04-01T02:53:24;6.68;;;1.90;;
15748;SDS011;7976;52.526;13.326;2023-04-01T02:55:51;7.30;;;1.85;;
15748;SDS011;7976;52.526;13.326;2023-04-01T02:58:18;8.00;;;2.03;;
15748;SDS011;7976;52.526;13.326;2023-04-01T03:00:45;7.40;;;2.03;;
15748;SDS011;7976;52.526;13.326;2023-04-01T03:03:12;8.25;;;2.10;;
15748;SDS011;7976;52.526;13.326;2023-04-01T03:05:39;8.00;;;1.90;;
15748;SDS011;7976;52.526;13.326;2023-04-01T03:08:06;5.60;;;1.67;;
15748;SDS011;7976;52.526;13.326;2023-04-01T03:10:34;7.28;;;1.80;;
15748;SDS011;7976;52.526;13.326;2023-04-01T03:13:02;7.80;;;1.83;;
15748;SDS011;7976;52.526;13.326;2023-04-01T03:15:29;5.90;;;1.83;;
15748;SDS011;7976;52.526;13.326;2023-04-01T03:17:56;8.90;;;2.17;;
15748;SDS011;7976;52.526;13.326;2023-04-01T03:20:23;8.43;;;1.83;;
15748;SDS011;7976;52.526;13.326;2023-04-01T03:22:50;7.72;;;2.03;;
15748;SDS011;7976;52.526;13.326;2023-04-01T03:25:17;5.47;;;1.70;;
15748;SDS011;7976;52.526;13.326;2023-04-01T03:27:47;6.70;;;1.70;;
15748;SDS011;7976;52.526;13.326;2023-04-01T03:30:14;6.25;;;1.90;;
15748;SDS011;7976;52.526;13.326;2023-04-01T03:32:48;6.53;;;2.10;;
15748;SDS011;7976;52.526;13.326;2023-04-01T03:35:15;7.90;;;1.80;;
15748;SDS011;7976;52.526;13.326;2023-04-01T03:37:44;6.68;;;1.75;;
15748;SDS011;7976;52.526;13.326;2023-04-01T03:40:11;8.75;;;2.40;;
15748;SDS011;7976;52.526;13.326;2023-04-01T03:42:39;8.80;;;2.33;;
15748;SDS011;7976;52.526;13.326;2023-04-01T03:45:07;9.23;;;2.63;;
15748;SDS011;7976;52.526;13.326;2023-04-01T03:47:36;7.05;;;2.28;;
15748;SDS011;7976;52.526;13.326;2023-04-01T03:50:04;7.60;;;1.90;;
15748;SDS011;7976;52.526;13.326;2023-04-01T03:52:33;8.82;;;1.98;;
15748;SDS011;7976;52.526;13.326;2023-04-01T03:55:00;8.75;;;2.13;;
15748;SDS011;7976;52.526;13.326;2023-04-01T03:57:28;8.90;;;1.73;;
15748;SDS011;7976;52.526;13.326;2023-04-01T04:00:03;7.03;;;1.95;;
15748;SDS011;7976;52.526;13.326;2023-04-01T04:02:40;6.45;;;2.00;;
15748;SDS011;7976;52.526;13.326;2023-04-01T04:05:08;6.22;;;1.77;;
15748;SDS011;7976;52.526;13.326;2023-04-01T04:07:36;8.40;;;2.30;;
15748;SDS011;7976;52.526;13.326;2023-04-01T04:10:07;9.10;;;1.98;;
15748;SDS011;7976;52.526;13.326;2023-04-01T04:12:34;8.13;;;2.10;;
15748;SDS011;7976;52.526;13.326;2023-04-01T04:15:01;7.25;;;1.80;;
15748;SDS011;7976;52.526;13.326;2023-04-01T04:17:28;6.15;;;2.10;;
15748;SDS011;7976;52.526;13.326;2023-04-01T04:19:56;6.95;;;2.00;;
15748;SDS011;7976;52.526;13.326;2023-04-01T04:22:23;8.45;;;2.28;;
15748;SDS011;7976;52.526;13.326;2023-04-01T04:24:50;7.22;;;2.22;;
15748;SDS011;7976;52.526;13.326;2023-04-01T04:27:17;7.90;;;2.03;;
15748;SDS011;7976;52.526;13.326;2023-04-01T04:29:59;6.57;;;1.98;;
15748;SDS011;7976;52.526;13.326;2023-04-01T04:32:26;7.28;;;2.38;;
15748;SDS011;7976;52.526;13.326;2023-04-01T04:34:54;7.45;;;1.95;;
15748;SDS011;7976;52.526;13.326;2023-04-01T04:37:23;6.55;;;2.00;;
15748;SDS011;7976;52.526;13.326;2023-04-01T04:39:50;9.55;;;2.10;;
15748;SDS011;7976;52.526;13.326;2023-04-01T04:42:18;9.18;;;2.22;;
15748;SDS011;7976;52.526;13.326;2023-04-01T04:44:45;5.13;;;1.92;;
15748;SDS011;7976;52.526;13.326;2023-04-01T04:47:12;6.75;;;2.10;;
15748;SDS011;7976;52.526;13.326;2023-04-01T04:49:39;8.57;;;2.20;;
15748;SDS011;7976;52.526;13.326;2023-04-01T04:52:09;8.85;;;2.08;;
15748;SDS011;7976;52.526;13.326;2023-04-01T04:54:36;5.70;;;2.00;;
15748;SDS011;7976;52.526;13.326;2023-04-01T04:57:04;8.35;;;1.90;;
15748;SDS011;7976;52.526;13.326;2023-04-01T04:59:36;10.43;;;2.45;;
15748;SDS011;7976;52.526;13.326;2023-04-01T05:02:11;9.60;;;2.88;;
15748;SDS011;7976;52.526;13.326;2023-04-01T05:04:38;7.47;;;2.17;;
15748;SDS011;7976;52.526;13.326;2023-04-01T05:07:09;10.13;;;2.70;;
15748;SDS011;7976;52.526;13.326;2023-04-01T05:09:36;7.30;;;2.78;;
15748;SDS011;7976;52.526;13.326;2023-04-01T05:12:03;8.40;;;2.10;;
15748;SDS011;7976;52.526;13.326;2023-04-01T05:14:49;8.18;;;2.30;;
15748;SDS011;7976;52.526;13.326;2023-04-01T05:17:16;7.57;;;2.30;;
15748;SDS011;7976;52.526;13.326;2023-04-01T05:19:43;11.40;;;2.50;;
15748;SDS011;7976;52.526;13.326;2023-04-01T05:22:12;10.63;;;2.42;;
15748;SDS011;7976;52.526;13.326;2023-04-01T05:24:41;9.02;;;2.40;;
15748;SDS011;7976;52.526;13.326;2023-04-01T05:27:08;13.27;;;2.30;;
15748;SDS011;7976;52.526;13.326;2023-04-01T05:29:38;11.82;;;2.20;;
15748;SDS011;7976;52.526;13.326;2023-04-01T05:32:08;10.18;;;2.50;;
15748;SDS011;7976;52.526;13.326;2023-04-01T05:34:35;7.82;;;2.40;;
15748;SDS011;7976;52.526;13.326;2023-04-01T05:37:01;8.45;;;2.38;;
15748;SDS011;7976;52.526;13.326;2023-04-01T05:39:30;7.32;;;2.50;;
15748;SDS011;7976;52.526;13.326;2023-04-01T05:41:57;10.25;;;2.40;;
15748;SDS011;7976;52.526;13.326;2023-04-01T05:44:24;10.30;;;2.53;;
15748;SDS011;7976;52.526;13.326;2023-04-01T05:47:05;7.03;;;2.10;;
15748;SDS011;7976;52.526;13.326;2023-04-01T05:49:32;8.15;;;2.33;;
15748;SDS011;7976;52.526;13.326;2023-04-01T05:52:01;10.13;;;2.35;;
15748;SDS011;7976;52.526;13.326;2023-04-01T05:54:30;7.95;;;2.60;;
15748;SDS011;7976;52.526;13.326;2023-04-01T05:56:57;9.43;;;2.50;;
15748;SDS011;7976;52.526;13.326;2023-04-01T05:59:24;7.70;;;2.25;;
15748;SDS011;7976;52.526;13.326;2023-04-01T06:01:51;7.90;;;2.17;;
15748;SDS011;7976;52.526;13.326;2023-04-01T06:04:19;9.57;;;2.25;;
15748;SDS011;7976;52.526;13.326;2023-04-01T06:06:46;8.85;;;2.60;;
15748;SDS011;7976;52.526;13.326;2023-04-01T06:09:15;6.65;;;2.33;;
15748;SDS011;7976;52.526;13.326;2023-04-01T06:11:54;7.05;;;2.50;;
15748;SDS011;7976;52.526;13.326;2023-04-01T06:14:56;10.55;;;2.63;;
15748;SDS011;7976;52.526;13.326;2023-04-01T06:17:45;8.00;;;2.40;;
15748;SDS011;7976;52.526;13.326;2023-04-01T06:20:38;7.53;;;2.45;;
15748;SDS011;7976;52.526;13.326;2023-04-01T06:26:19;10.60;;;3.03;;
15748;SDS011;7976;52.526;13.326;2023-04-01T06:32:19;9.50;;;2.60;;
15748;SDS011;7976;52.526;13.326;2023-04-01T06:35:15;10.02;;;3.28;;
15748;SDS011;7976;52.526;13.326;2023-04-01T06:38:07;9.82;;;2.97;;
15748;SDS011;7976;52.526;13.326;2023-04-01T06:41:00;8.68;;;2.42;;
15748;SDS011;7976;52.526;13.326;2023-04-01T06:43:46;12.35;;;2.75;;
15748;SDS011;7976;52.526;13.326;2023-04-01T06:46:46;8.45;;;2.75;;
15748;SDS011;7976;52.526;13.326;2023-04-01T06:49:41;8.73;;;2.83;;
15748;SDS011;7976;52.526;13.326;2023-04-01T06:53:02;10.00;;;2.78;;
15748;SDS011;7976;52.526;13.326;2023-04-01T06:55:55;6.18;;;2.33;;
15748;SDS011;7976;52.526;13.326;2023-04-01T06:58:57;7.50;;;2.50;;
15748;SDS011;7976;52.526;13.326;2023-04-01T07:01:29;11.15;;;2.65;;
15748;SDS011;7976;52.526;13.326;2023-04-01T07:04:04;7.28;;;2.65;;
15748;SDS011;7976;52.526;13.326;2023-04-01T07:06:39;8.85;;;2.90;;
15748;SDS011;7976;52.526;13.326;2023-04-01T07:09:16;11.68;;;3.65;;
15748;SDS011;7976;52.526;13.326;2023-04-01T07:12:10;9.45;;;2.70;;
15748;SDS011;7976;52.526;13.326;2023-04-01T07:15:12;8.38;;;2.38;;
15748;SDS011;7976;52.526;13.326;2023-04-01T07:17:45;9.30;;;2.78;;
15748;SDS011;7976;52.526;13.326;2023-04-01T07:20:22;7.35;;;2.17;;
15748;SDS011;7976;52.526;13.326;2023-04-01T07:22:56;8.00;;;2.55;;
15748;SDS011;7976;52.526;13.326;2023-04-01T07:25:43;7.45;;;2.17;;
15748;SDS011;7976;52.526;13.326;2023-04-01T07:28:35;12.70;;;2.80;;
15748;SDS011;7976;52.526;13.326;2023-04-01T07:31:18;6.82;;;2.13;;
15748;SDS011;7976;52.526;13.326;2023-04-01T07:33:58;7.80;;;2.15;;
15748;SDS011;7976;52.526;13.326;2023-04-01T07:36:35;7.90;;;2.10;;
15748;SDS011;7976;52.526;13.326;2023-04-01T07:39:14;9.15;;;2.38;;
15748;SDS011;7976;52.526;13.326;2023-04-01T07:42:17;8.73;;;2.45;;
15748;SDS011;7976;52.526;13.326;2023-04-01T07:45:01;8.55;;;2.03;;
15748;SDS011;7976;52.526;13.326;2023-04-01T07:47:45;7.72;;;2.20;;
15748;SDS011;7976;52.526;13.326;2023-04-01T07:50:34;9.68;;;2.10;;
15748;SDS011;7976;52.526;13.326;2023-04-01T07:53:15;8.90;;;2.50;;
15748;SDS011;7976;52.526;13.326;2023-04-01T07:55:58;7.95;;;2.20;;
15748;SDS011;7976;52.526;13.326;2023-04-01T07:58:38;9.13;;;2.40;;
15748;SDS011;7976;52.526;13.326;2023-04-01T08:02:00;9.98;;;2.40;;
15748;SDS011;7976;52.526;13.326;2023-04-01T08:04:45;8.02;;;2.25;;
15748;SDS011;7976;52.526;13.326;2023-04-01T08:07:28;8.52;;;2.47;;
15748;SDS011;7976;52.526;13.326;2023-04-01T08:10:27;8.85;;;2.80;;
15748;SDS011;7976;52.526;13.326;2023-04-01T08:13:28;7.72;;;2.55;;
15748;SDS011;7976;52.526;13.326;2023-04-01T08:16:26;10.23;;;2.70;;
15748;SDS011;7976;52.526;13.326;2023-04-01T08:19:04;7.75;;;2.90;;
15748;SDS011;7976;52.526;13.326;2023-04-01T08:21:45;9.00;;;2.72;;
15748;SDS011;7976;52.526;13.326;2023-04-01T08:24:19;7.40;;;2.47;;
15748;SDS011;7976;52.526;13.326;2023-04-01T08:26:55;9.38;;;2.45;;
15748;SDS011;7976;52.526;13.326;2023-04-01T08:29:31;7.00;;;2.10;;
15748;SDS011;7976;52.526;13.326;2023-04-01T08:32:08;7.32;;;2.03;;
15748;SDS011;7976;52.526;13.326;2023-04-01T08:34:43;10.18;;;2.10;;
15748;SDS011;7976;52.526;13.326;2023-04-01T08:37:30;11.93;;;2.67;;
15748;SDS011;7976;52.526;13.326;2023-04-01T08:40:08;8.18;;;2.40;;
15748;SDS011;7976;52.526;13.326;2023-04-01T08:43:08;8.98;;;2.63;;
15748;SDS011;7976;52.526;13.326;2023-04-01T08:45:44;6.45;;;2.17;;
15748;SDS011;7976;52.526;13.326;2023-04-01T08:48:35;7.47;;;2.30;;
15748;SDS011;7976;52.526;13.326;2023-04-01T08:54:55;8.50;;;2.63;;
15748;SDS011;7976;52.526;13.326;2023-04-01T09:01:26;10.60;;;3.30;;
15748;SDS011;7976;52.526;13.326;2023-04-01T09:04:47;10.85;;;4.28;;
15748;SDS011;7976;52.526;13.326;2023-04-01T09:07:50;11.80;;;4.50;;
15748;SDS011;7976;52.526;13.326;2023-04-01T09:14:15;15.18;;;6.00;;
15748;SDS011;7976;52.526;13.326;2023-04-01T09:17:27;22.38;;;8.95;;
15748;SDS011;7976;52.526;13.326;2023-04-01T09:20:27;20.63;;;10.45;;
15748;SDS011;7976;52.526;13.326;2023-04-01T09:26:22;17.02;;;7.20;;
15748;SDS011;7976;52.526;13.326;2023-04-01T09:29:29;14.93;;;7.60;;
15748;SDS011;7976;52.526;13.326;2023-04-01T09:32:42;14.82;;;7.35;;
15748;SDS011;7976;52.526;13.326;2023-04-01T09:35:38;16.48;;;7.60;;
15748;SDS011;7976;52.526;13.326;2023-04-01T09:38:22;15.55;;;7.70;;
15748;SDS011;7976;52.526;13.326;2023-04-01T09:40:56;16.83;;;7.80;;
15748;SDS011;7976;52.526;13.326;2023-04-01T09:43:45;15.45;;;7.35;;
15748;SDS011;7976;52.526;13.326;2023-04-01T09:46:37;15.05;;;7.53;;
15748;SDS011;7976;52.526;13.326;2023-04-01T09:49:37;14.43;;;7.25;;
15748;SDS011;7976;52.526;13.326;2023-04-01T09:52:30;15.20;;;7.28;;
15748;SDS011;7976;52.526;13.326;2023-04-01T09:55:26;16.23;;;8.20;;
15748;SDS011;7976;52.526;13.326;2023-04-01T09:58:49;15.70;;;7.47;;
15748;SDS011;7976;52.526;13.326;2023-04-01T10:05:54;17.02;;;7.68;;
15748;SDS011;7976;52.526;13.326;2023-04-01T10:09:19;16.63;;;7.57;;
15748;SDS011;7976;52.526;13.326;2023-04-01T10:19:37;39.00;;;18.85;;
15748;SDS011;7976;52.526;13.326;2023-04-01T10:22:49;23.25;;;11.02;;
15748;SDS011;7976;52.526;13.326;2023-04-01T10:26:10;22.85;;;11.45;;
15748;SDS011;7976;52.526;13.326;2023-04-01T10:29:28;30.58;;;14.45;;
15748;SDS011;7976;52.526;13.326;2023-04-01T10:32:36;19.58;;;10.25;;
15748;SDS011;7976;52.526;13.326;2023-04-01T10:35:56;24.63;;;12.43;;
15748;SDS011;7976;52.526;13.326;2023-04-01T10:39:08;19.67;;;9.93;;
15748;SDS011;7976;52.526;13.326;2023-04-01T10:42:52;20.42;;;9.75;;
15748;SDS011;7976;52.526;13.326;2023-04-01T10:46:17;16.30;;;8.30;;
15748;SDS011;7976;52.526;13.326;2023-04-01T10:49:27;20.48;;;10.40;;
15748;SDS011;7976;52.526;13.326;2023-04-01T10:53:16;21.65;;;10.73;;
15748;SDS011;7976;52.526;13.326;2023-04-01T10:56:39;19.98;;;10.23;;
15748;SDS011;7976;52.526;13.326;2023-04-01T10:59:45;21.27;;;10.75;;
15748;SDS011;7976;52.526;13.326;2023-04-01T11:03:12;21.55;;;10.30;;
15748;SDS011;7976;52.526;13.326;2023-04-01T11:06:40;25.33;;;10.85;;
15748;SDS011;7976;52.526;13.326;2023-04-01T11:09:48;20.30;;;9.77;;
15748;SDS011;7976;52.526;13.326;2023-04-01T11:13:04;22.33;;;10.48;;
15748;SDS011;7976;52.526;13.326;2023-04-01T11:16:17;21.33;;;10.23;;
15748;SDS011;7976;52.526;13.326;2023-04-01T11:22:46;22.42;;;10.20;;
15748;SDS011;7976;52.526;13.326;2023-04-01T11:25:48;28.77;;;13.80;;
15748;SDS011;7976;52.526;13.326;2023-04-01T11:31:54;18.40;;;8.88;;
15748;SDS011;7976;52.526;13.326;2023-04-01T11:34:43;18.27;;;8.90;;
15748;SDS011;7976;52.526;13.326;2023-04-01T11:37:30;20.20;;;10.10;;
15748;SDS011;7976;52.526;13.326;2023-04-01T11:40:31;31.75;;;15.75;;
15748;SDS011;7976;52.526;13.326;2023-04-01T11:43:32;23.15;;;11.90;;
15748;SDS011;7976;52.526;13.326;2023-04-01T11:46:33;24.13;;;11.00;;
15748;SDS011;7976;52.526;13.326;2023-04-01T11:49:18;23.75;;;12.38;;
15748;SDS011;7976;52.526;13.326;2023-04-01T11:53:00;19.55;;;9.70;;
15748;SDS011;7976;52.526;13.326;2023-04-01T11:56:01;24.17;;;11.38;;
15748;SDS011;7976;52.526;13.326;2023-04-01T11:58:48;28.30;;;13.27;;
15748;SDS011;7976;52.526;13.326;2023-04-01T12:01:54;24.10;;;12.18;;
15748;SDS011;7976;52.526;13.326;2023-04-01T12:04:41;25.65;;;12.55;;
15748;SDS011;7976;52.526;13.326;2023-04-01T12:07:24;27.27;;;12.65;;
15748;SDS011;7976;52.526;13.326;2023-04-01T12:10:13;24.38;;;11.50;;
15748;SDS011;7976;52.526;13.326;2023-04-01T12:12:48;25.95;;;13.95;;
15748;SDS011;7976;52.526;13.326;2023-04-01T12:15:36;27.90;;;14.50;;
15748;SDS011;7976;52.526;13.326;2023-04-01T12:18:31;27.73;;;13.85;;
15748;SDS011;7976;52.526;13.326;2023-04-01T12:21:09;27.73;;;13.98;;
15748;SDS011;7976;52.526;13.326;2023-04-01T12:24:03;28.42;;;14.23;;
15748;SDS011;7976;52.526;13.326;2023-04-01T12:27:15;25.20;;;12.43;;
15748;SDS011;7976;52.526;13.326;2023-04-01T12:30:01;20.52;;;10.63;;
15748;SDS011;7976;52.526;13.326;2023-04-01T12:32:52;21.60;;;10.63;;
15748;SDS011;7976;52.526;13.326;2023-04-01T12:35:43;20.63;;;10.45;;
15748;SDS011;7976;52.526;13.326;2023-04-01T12:38:26;20.15;;;10.82;;
15748;SDS011;7976;52.526;13.326;2023-04-01T12:41:08;22.13;;;11.23;;
15748;SDS011;7976;52.526;13.326;2023-04-01T12:47:12;24.75;;;13.13;;
15748;SDS011;7976;52.526;13.326;2023-04-01T12:50:37;25.67;;;11.55;;
15748;SDS011;7976;52.526;13.326;2023-04-01T12:53:45;22.73;;;10.65;;
15748;SDS011;7976;52.526;13.326;2023-04-01T12:56:44;23.10;;;11.32;;
15748;SDS011;7976;52.526;13.326;2023-04-01T12:59:33;24.05;;;11.10;;
15748;SDS011;7976;52.526;13.326;2023-04-01T13:02:29;45.67;;;20.70;;
15748;SDS011;7976;52.526;13.326;2023-04-01T13:05:15;31.67;;;15.48;;
15748;SDS011;7976;52.526;13.326;2023-04-01T13:08:08;25.35;;;12.35;;
15748;SDS011;7976;52.526;13.326;2023-04-01T13:10:59;26.63;;;12.55;;
15748;SDS011;7976;52.526;13.326;2023-04-01T13:13:48;28.38;;;14.30;;
15748;SDS011;7976;52.526;13.326;2023-04-01T13:16:41;23.73;;;11.02;;
15748;SDS011;7976;52.526;13.326;2023-04-01T13:19:17;24.88;;;12.35;;
15748;SDS011;7976;52.526;13.326;2023-04-01T13:21:52;25.95;;;13.23;;
15748;SDS011;7976;52.526;13.326;2023-04-01T13:24:34;27.63;;;13.70;;
15748;SDS011;7976;52.526;13.326;2023-04-01T13:27:18;29.42;;;14.20;;
15748;SDS011;7976;52.526;13.326;2023-04-01T13:29:59;26.60;;;13.85;;
15748;SDS011;7976;52.526;13.326;2023-04-01T13:32:49;30.30;;;14.30;;
15748;SDS011;7976;52.526;13.326;2023-04-01T13:35:33;27.95;;;13.25;;
15748;SDS011;7976;52.526;13.326;2023-04-01T13:41:17;27.98;;;13.48;;
15748;SDS011;7976;52.526;13.326;2023-04-01T13:44:06;24.30;;;12.23;;
15748;SDS011;7976;52.526;13.326;2023-04-01T13:46:47;22.23;;;10.45;;
15748;SDS011;7976;52.526;13.326;2023-04-01T13:55:49;20.70;;;9.32;;
15748;SDS011;7976;52.526;13.326;2023-04-01T13:58:35;19.70;;;9.25;;
15748;SDS011;7976;52.526;13.326;2023-04-01T14:01:39;16.40;;;7.55;;
15748;SDS011;7976;52.526;13.326;2023-04-01T14:10:19;18.00;;;8.15;;
15748;SDS011;7976;52.526;13.326;2023-04-01T14:13:03;18.85;;;9.10;;
15748;SDS011;7976;52.526;13.326;2023-04-01T14:15:50;27.40;;;12.57;;
15748;SDS011;7976;52.526;13.326;2023-04-01T14:18:38;22.58;;;10.45;;
15748;SDS011;7976;52.526;13.326;2023-04-01T14:21:27;31.75;;;14.18;;
15748;SDS011;7976;52.526;13.326;2023-04-01T14:24:14;16.80;;;8.52;;
15748;SDS011;7976;52.526;13.326;2023-04-01T14:26:58;14.35;;;7.63;;
15748;SDS011;7976;52.526;13.326;2023-04-01T14:33:10;25.15;;;11.90;;
15748;SDS011;7976;52.526;13.326;2023-04-01T14:35:55;37.42;;;16.08;;
15748;SDS011;7976;52.526;13.326;2023-04-01T14:38:52;37.60;;;16.10;;
15748;SDS011;7976;52.526;13.326;2023-04-01T14:41:35;28.98;;;14.98;;
15748;SDS011;7976;52.526;13.326;2023-04-01T14:44:33;30.33;;;13.95;;
15748;SDS011;7976;52.526;13.326;2023-04-01T14:47:25;72.60;;;27.75;;
15748;SDS011;7976;52.526;13.326;2023-04-01T14:50:13;21.50;;;8.48;;
15748;SDS011;7976;52.526;13.326;2023-04-01T14:52:52;17.95;;;9.02;;
15748;SDS011;7976;52.526;13.326;2023-04-01T14:55:44;30.30;;;13.15;;
15748;SDS011;7976;52.526;13.326;2023-04-01T14:58:17;23.45;;;10.98;;
15748;SDS011;7976;52.526;13.326;2023-04-01T15:00:48;50.60;;;22.30;;
15748;SDS011;7976;52.526;13.326;2023-04-01T15:03:26;15.30;;;6.75;;
15748;SDS011;7976;52.526;13.326;2023-04-01T15:09:10;14.50;;;6.15;;
15748;SDS011;7976;52.526;13.326;2023-04-01T15:11:56;22.15;;;10.20;;
15748;SDS011;7976;52.526;13.326;2023-04-01T15:14:37;16.65;;;7.90;;
15748;SDS011;7976;52.526;13.326;2023-04-01T15:17:29;18.20;;;7.38;;
15748;SDS011;7976;52.526;13.326;2023-04-01T15:20:24;33.50;;;14.32;;
15748;SDS011;7976;52.526;13.326;2023-04-01T15:23:21;28.08;;;12.93;;
15748;SDS011;7976;52.526;13.326;2023-04-01T15:26:07;24.60;;;10.52;;
15748;SDS011;7976;52.526;13.326;2023-04-01T15:28:49;29.35;;;12.35;;
15748;SDS011;7976;52.526;13.326;2023-04-01T15:31:38;46.60;;;19.98;;
15748;SDS011;7976;52.526;13.326;2023-04-01T15:34:20;41.28;;;17.02;;
15748;SDS011;7976;52.526;13.326;2023-04-01T15:37:02;45.20;;;18.30;;
15748;SDS011;7976;52.526;13.326;2023-04-01T15:39:48;35.83;;;14.48;;
15748;SDS011;7976;52.526;13.326;2023-04-01T15:42:31;17.88;;;8.10;;
15748;SDS011;7976;52.526;13.326;2023-04-01T15:45:17;15.55;;;7.43;;
15748;SDS011;7976;52.526;13.326;2023-04-01T15:48:01;18.52;;;8.10;;
15748;SDS011;7976;52.526;13.326;2023-04-01T15:50:54;17.23;;;7.82;;
15748;SDS011;7976;52.526;13.326;2023-04-01T15:53:33;24.50;;;11.73;;
15748;SDS011;7976;52.526;13.326;2023-04-01T15:56:19;39.90;;;17.83;;
15748;SDS011;7976;52.526;13.326;2023-04-01T15:59:11;21.10;;;9.88;;
15748;SDS011;7976;52.526;13.326;2023-04-01T16:01:56;55.55;;;24.10;;
15748;SDS011;7976;52.526;13.326;2023-04-01T16:04:44;41.38;;;20.83;;
15748;SDS011;7976;52.526;13.326;2023-04-01T16:07:38;25.67;;;10.38;;
15748;SDS011;7976;52.526;13.326;2023-04-01T16:10:24;27.77;;;12.60;;
15748;SDS011;7976;52.526;13.326;2023-04-01T16:13:30;27.23;;;12.23;;
15748;SDS011;7976;52.526;13.326;2023-04-01T16:16:14;23.88;;;11.38;;
15748;SDS011;7976;52.526;13.326;2023-04-01T16:18:59;24.20;;;11.30;;
15748;SDS011;7976;52.526;13.326;2023-04-01T16:21:48;21.77;;;9.95;;
15748;SDS011;7976;52.526;13.326;2023-04-01T16:24:22;16.23;;;8.63;;
15748;SDS011;7976;52.526;13.326;2023-04-01T16:27:00;21.40;;;10.00;;
15748;SDS011;7976;52.526;13.326;2023-04-01T16:29:40;21.70;;;10.00;;
15748;SDS011;7976;52.526;13.326;2023-04-01T16:32:16;19.10;;;8.95;;
15748;SDS011;7976;52.526;13.326;2023-04-01T16:34:56;13.43;;;5.38;;
15748;SDS011;7976;52.526;13.326;2023-04-01T16:37:43;11.85;;;4.32;;
15748;SDS011;7976;52.526;13.326;2023-04-01T16:40:22;12.35;;;4.50;;
15748;SDS011;7976;52.526;13.326;2023-04-01T16:43:10;20.30;;;9.50;;
15748;SDS011;7976;52.526;13.326;2023-04-01T16:45:51;17.50;;;7.65;;
15748;SDS011;7976;52.526;13.326;2023-04-01T16:49:00;15.13;;;6.50;;
15748;SDS011;7976;52.526;13.326;2023-04-01T16:51:44;16.13;;;6.70;;
15748;SDS011;7976;52.526;13.326;2023-04-01T16:54:25;21.95;;;7.25;;
15748;SDS011;7976;52.526;13.326;2023-04-01T16:57:10;19.25;;;7.25;;
15748;SDS011;7976;52.526;13.326;2023-04-01T16:59:52;18.63;;;7.75;;
15748;SDS011;7976;52.526;13.326;2023-04-01T17:02:28;20.45;;;9.10;;
15748;SDS011;7976;52.526;13.326;2023-04-01T17:05:03;15.50;;;5.55;;
15748;SDS011;7976;52.526;13.326;2023-04-01T17:07:43;24.25;;;9.77;;
15748;SDS011;7976;52.526;13.326;2023-04-01T17:10:25;37.53;;;15.70;;
15748;SDS011;7976;52.526;13.326;2023-04-01T17:13:17;17.60;;;8.20;;
15748;SDS011;7976;52.526;13.326;2023-04-01T17:15:59;53.63;;;22.23;;